sensor_id;sensor_type;location;lat;lon;timestamp;pressure;altitude;pressure_sealevel;temperature;humidity
74936;BME280;63501;55.570;37.488;2023-07-13T00:02:08;98060.88;;;10.15;87.77
74936;BME280;63501;55.570;37.488;2023-07-13T00:04:36;98066.41;;;10.15;87.54
74936;BME280;63501;55.570;37.488;2023-07-13T00:07:03;98063.25;;;10.16;87.76
74936;BME280;63501;55.570;37.488;2023-07-13T00:09:30;98060.81;;;10.18;86.67
74936;BME280;63501;55.570;37.488;2023-07-13T00:11:57;98066.34;;;10.18;86.95
74936;BME280;63501;55.570;37.488;2023-07-13T00:14:26;98070.63;;;10.23;86.34
74936;BME280;63501;55.570;37.488;2023-07-13T00:16:56;98060.78;;;10.22;86.43
74936;BME280;63501;55.570;37.488;2023-07-13T00:19:26;98058.78;;;10.22;86.45
74936;BME280;63501;55.570;37.488;2023-07-13T00:21:53;98063.53;;;10.22;86.64
74936;BME280;63501;55.570;37.488;2023-07-13T00:24:21;98067.06;;;10.22;86.24
74936;BME280;63501;55.570;37.488;2023-07-13T00:26:49;98063.91;;;10.24;86.92
74936;BME280;63501;55.570;37.488;2023-07-13T00:29:16;98065.91;;;10.23;86.62
74936;BME280;63501;55.570;37.488;2023-07-13T00:31:43;98067.44;;;10.24;85.65
74936;BME280;63501;55.570;37.488;2023-07-13T00:34:13;98064.97;;;10.30;86.48
74936;BME280;63501;55.570;37.488;2023-07-13T00:36:40;98061.44;;;10.29;86.30
74936;BME280;63501;55.570;37.488;2023-07-13T00:39:07;98053.50;;;10.31;85.74
74936;BME280;63501;55.570;37.488;2023-07-13T00:41:35;98063.38;;;10.32;85.58
74936;BME280;63501;55.570;37.488;2023-07-13T00:44:02;98051.88;;;10.34;85.27
74936;BME280;63501;55.570;37.488;2023-07-13T00:46:31;98048.69;;;10.36;85.97
74936;BME280;63501;55.570;37.488;2023-07-13T00:49:02;98056.63;;;10.33;85.84
74936;BME280;63501;55.570;37.488;2023-07-13T00:51:36;98051.88;;;10.34;85.36
74936;BME280;63501;55.570;37.488;2023-07-13T00:54:09;98062.16;;;10.33;85.51
74936;BME280;63501;55.570;37.488;2023-07-13T00:56:39;98068.91;;;10.32;86.09
74936;BME280;63501;55.570;37.488;2023-07-13T00:59:08;98064.97;;;10.30;86.07
74936;BME280;63501;55.570;37.488;2023-07-13T01:01:37;98064.56;;;10.31;86.19
74936;BME280;63501;55.570;37.488;2023-07-13T01:04:04;98069.28;;;10.31;85.69
74936;BME280;63501;55.570;37.488;2023-07-13T01:06:35;98058.34;;;10.27;86.09
74936;BME280;63501;55.570;37.488;2023-07-13T01:09:03;98061.78;;;10.31;86.11
74936;BME280;63501;55.570;37.488;2023-07-13T01:11:30;98065.31;;;10.32;85.25
74936;BME280;63501;55.570;37.488;2023-07-13T01:13:57;98069.72;;;10.29;86.08
74936;BME280;63501;55.570;37.488;2023-07-13T01:16:29;98051.13;;;10.33;86.05
74936;BME280;63501;55.570;37.488;2023-07-13T01:18:57;98050.34;;;10.33;85.90
74936;BME280;63501;55.570;37.488;2023-07-13T01:21:28;98053.88;;;10.33;85.67
74936;BME280;63501;55.570;37.488;2023-07-13T01:23:55;98056.97;;;10.36;86.39
74936;BME280;63501;55.570;37.488;2023-07-13T01:26:22;98066.03;;;10.36;86.06
74936;BME280;63501;55.570;37.488;2023-07-13T01:28:50;98051.88;;;10.34;85.79
74936;BME280;63501;55.570;37.488;2023-07-13T01:31:17;98049.47;;;10.36;85.73
74936;BME280;63501;55.570;37.488;2023-07-13T01:33:44;98048.69;;;10.36;86.27
74936;BME280;63501;55.570;37.488;2023-07-13T01:36:11;98051.47;;;10.36;85.76
74936;BME280;63501;55.570;37.488;2023-07-13T01:38:40;98044.81;;;10.33;85.59
74936;BME280;63501;55.570;37.488;2023-07-13T01:41:08;98042.03;;;10.33;85.73
74936;BME280;63501;55.570;37.488;2023-07-13T01:43:35;98040.91;;;10.30;85.83
74936;BME280;63501;55.570;37.488;2023-07-13T01:46:02;98038.91;;;10.31;86.39
74936;BME280;63501;55.570;37.488;2023-07-13T01:48:29;98033.81;;;10.29;86.40
74936;BME280;63501;55.570;37.488;2023-07-13T01:50:56;98031.47;;;10.28;85.92
74936;BME280;63501;55.570;37.488;2023-07-13T01:53:23;98040.91;;;10.30;86.26
74936;BME280;63501;55.570;37.488;2023-07-13T01:55:52;98032.19;;;10.32;85.99
74936;BME280;63501;55.570;37.488;2023-07-13T01:58:19;98030.22;;;10.32;86.36
74936;BME280;63501;55.570;37.488;2023-07-13T02:00:48;98019.84;;;10.37;86.38
74936;BME280;63501;55.570;37.488;2023-07-13T02:03:15;98023.00;;;10.39;85.41
74936;BME280;63501;55.570;37.488;2023-07-13T02:05:43;98028.03;;;10.44;85.68
74936;BME280;63501;55.570;37.488;2023-07-13T02:08:11;98019.31;;;10.45;86.40
74936;BME280;63501;55.570;37.488;2023-07-13T02:10:38;98023.63;;;10.46;85.72
74936;BME280;63501;55.570;37.488;2023-07-13T02:13:07;98023.56;;;10.50;85.98
74936;BME280;63501;55.570;37.488;2023-07-13T02:15:38;98016.03;;;10.50;85.36
74936;BME280;63501;55.570;37.488;2023-07-13T02:18:05;98022.75;;;10.49;85.42
74936;BME280;63501;55.570;37.488;2023-07-13T02:20:52;98027.16;;;10.47;85.97
74936;BME280;63501;55.570;37.488;2023-07-13T02:23:20;98031.91;;;10.46;85.32
74936;BME280;63501;55.570;37.488;2023-07-13T02:25:47;98030.34;;;10.45;85.80
74936;BME280;63501;55.570;37.488;2023-07-13T02:28:16;98030.34;;;10.45;85.48
74936;BME280;63501;55.570;37.488;2023-07-13T02:30:43;98023.19;;;10.48;85.65
74936;BME280;63501;55.570;37.488;2023-07-13T02:33:10;98029.94;;;10.47;86.28
74936;BME280;63501;55.570;37.488;2023-07-13T02:35:37;98016.81;;;10.51;85.19
74936;BME280;63501;55.570;37.488;2023-07-13T02:38:04;98015.97;;;10.54;85.37
74936;BME280;63501;55.570;37.488;2023-07-13T02:40:32;98015.56;;;10.55;85.04
74936;BME280;63501;55.570;37.488;2023-07-13T02:43:01;98017.44;;;10.58;85.09
74936;BME280;63501;55.570;37.488;2023-07-13T02:45:30;98014.34;;;10.56;85.36
74936;BME280;63501;55.570;37.488;2023-07-13T02:47:57;98011.84;;;10.62;85.26
74936;BME280;63501;55.570;37.488;2023-07-13T02:50:24;98007.03;;;10.66;85.14
74936;BME280;63501;55.570;37.488;2023-07-13T02:52:51;98017.94;;;10.73;85.40
74936;BME280;63501;55.570;37.488;2023-07-13T02:55:18;98009.56;;;10.77;85.51
74936;BME280;63501;55.570;37.488;2023-07-13T02:57:46;98002.31;;;10.83;85.37
74936;BME280;63501;55.570;37.488;2023-07-13T03:00:13;98004.25;;;10.86;84.88
74936;BME280;63501;55.570;37.488;2023-07-13T03:02:43;98006.06;;;10.93;84.55
74936;BME280;63501;55.570;37.488;2023-07-13T03:05:11;98002.03;;;10.97;84.03
74936;BME280;63501;55.570;37.488;2023-07-13T03:07:39;98003.66;;;10.95;85.02
74936;BME280;63501;55.570;37.488;2023-07-13T03:10:07;98005.91;;;11.00;84.03
74936;BME280;63501;55.570;37.488;2023-07-13T03:12:35;98001.56;;;10.99;84.28
74936;BME280;63501;55.570;37.488;2023-07-13T03:15:02;98004.34;;;10.99;84.69
74936;BME280;63501;55.570;37.488;2023-07-13T03:17:30;98003.06;;;11.03;84.67
74936;BME280;63501;55.570;37.488;2023-07-13T03:19:59;98004.53;;;11.08;84.78
74936;BME280;63501;55.570;37.488;2023-07-13T03:22:26;97998.56;;;11.09;84.32
74936;BME280;63501;55.570;37.488;2023-07-13T03:24:55;97994.97;;;11.12;84.59
74936;BME280;63501;55.570;37.488;2023-07-13T03:27:22;98003.16;;;11.16;83.66
74936;BME280;63501;55.570;37.488;2023-07-13T03:29:49;98006.47;;;11.27;83.39
74936;BME280;63501;55.570;37.488;2023-07-13T03:32:16;98015.66;;;11.41;83.01
74936;BME280;63501;55.570;37.488;2023-07-13T03:34:43;98009.34;;;11.40;83.60
74936;BME280;63501;55.570;37.488;2023-07-13T03:37:12;98021.88;;;11.45;82.32
74936;BME280;63501;55.570;37.488;2023-07-13T03:39:39;98011.34;;;11.39;82.90
74936;BME280;63501;55.570;37.488;2023-07-13T03:42:07;98005.44;;;11.37;82.55
74936;BME280;63501;55.570;37.488;2023-07-13T03:44:35;98007.69;;;11.43;82.76
74936;BME280;63501;55.570;37.488;2023-07-13T03:47:02;97995.78;;;11.46;83.12
74936;BME280;63501;55.570;37.488;2023-07-13T03:49:32;98002.59;;;11.57;83.00
74936;BME280;63501;55.570;37.488;2023-07-13T03:51:59;98001.91;;;11.70;82.07
74936;BME280;63501;55.570;37.488;2023-07-13T03:54:27;97993.16;;;11.87;81.50
74936;BME280;63501;55.570;37.488;2023-07-13T03:56:54;98002.22;;;12.04;81.44
74936;BME280;63501;55.570;37.488;2023-07-13T03:59:21;97999.69;;;12.10;80.53
74936;BME280;63501;55.570;37.488;2023-07-13T04:01:49;98008.81;;;12.23;80.43
74936;BME280;63501;55.570;37.488;2023-07-13T04:04:16;98010.19;;;12.31;79.37
74936;BME280;63501;55.570;37.488;2023-07-13T04:06:43;97995.28;;;12.41;80.23
74936;BME280;63501;55.570;37.488;2023-07-13T04:09:10;97999.66;;;12.68;79.92
74936;BME280;63501;55.570;37.488;2023-07-13T04:11:38;97996.59;;;12.91;79.30
74936;BME280;63501;55.570;37.488;2023-07-13T04:14:06;97994.94;;;13.07;78.43
74936;BME280;63501;55.570;37.488;2023-07-13T04:16:33;98006.69;;;12.85;77.17
74936;BME280;63501;55.570;37.488;2023-07-13T04:19:00;98012.31;;;12.69;77.41
74936;BME280;63501;55.570;37.488;2023-07-13T04:21:28;98013.41;;;12.71;78.67
74936;BME280;63501;55.570;37.488;2023-07-13T04:23:56;98006.22;;;12.74;78.04
74936;BME280;63501;55.570;37.488;2023-07-13T04:26:23;97998.25;;;12.89;78.38
74936;BME280;63501;55.570;37.488;2023-07-13T04:28:52;97995.16;;;12.87;77.98
74936;BME280;63501;55.570;37.488;2023-07-13T04:31:19;97995.91;;;12.87;76.97
74936;BME280;63501;55.570;37.488;2023-07-13T04:33:46;98000.00;;;12.70;77.01
74936;BME280;63501;55.570;37.488;2023-07-13T04:36:14;98001.28;;;12.53;77.52
74936;BME280;63501;55.570;37.488;2023-07-13T04:38:41;98008.34;;;12.41;77.98
74936;BME280;63501;55.570;37.488;2023-07-13T04:41:09;98003.22;;;12.39;77.83
74936;BME280;63501;55.570;37.488;2023-07-13T04:43:36;98012.44;;;12.36;78.70
74936;BME280;63501;55.570;37.488;2023-07-13T04:46:06;98013.91;;;12.41;78.09
74936;BME280;63501;55.570;37.488;2023-07-13T04:48:33;98018.91;;;12.46;78.57
74936;BME280;63501;55.570;37.488;2023-07-13T04:51:00;98016.63;;;12.70;77.53
74936;BME280;63501;55.570;37.488;2023-07-13T04:53:29;98012.25;;;12.85;77.16
74936;BME280;63501;55.570;37.488;2023-07-13T04:55:56;98017.78;;;12.85;77.08
74936;BME280;63501;55.570;37.488;2023-07-13T04:58:24;98021.91;;;12.93;76.83
74936;BME280;63501;55.570;37.488;2023-07-13T05:00:51;98011.81;;;13.12;76.70
74936;BME280;63501;55.570;37.488;2023-07-13T05:03:20;98005.84;;;13.14;76.00
74936;BME280;63501;55.570;37.488;2023-07-13T05:05:55;98014.34;;;13.07;75.83
74936;BME280;63501;55.570;37.488;2023-07-13T05:08:22;98012.34;;;12.94;77.22
74936;BME280;63501;55.570;37.488;2023-07-13T05:10:50;98015.88;;;12.82;76.98
74936;BME280;63501;55.570;37.488;2023-07-13T05:13:17;98011.88;;;12.83;76.73
74936;BME280;63501;55.570;37.488;2023-07-13T05:15:45;98013.00;;;12.86;77.38
74936;BME280;63501;55.570;37.488;2023-07-13T05:18:12;98023.00;;;12.96;77.00
74936;BME280;63501;55.570;37.488;2023-07-13T05:20:41;98005.94;;;12.97;76.04
74936;BME280;63501;55.570;37.488;2023-07-13T05:23:08;98000.38;;;12.97;76.34
74936;BME280;63501;55.570;37.488;2023-07-13T05:25:35;98001.38;;;13.16;76.15
74936;BME280;63501;55.570;37.488;2023-07-13T05:28:02;98008.53;;;13.30;75.25
74936;BME280;63501;55.570;37.488;2023-07-13T05:30:29;97997.91;;;13.76;74.60
74936;BME280;63501;55.570;37.488;2023-07-13T05:32:56;97997.81;;;14.01;73.99
74936;BME280;63501;55.570;37.488;2023-07-13T05:35:23;98006.78;;;14.18;73.49
74936;BME280;63501;55.570;37.488;2023-07-13T05:37:52;98000.94;;;14.03;71.95
74936;BME280;63501;55.570;37.488;2023-07-13T05:40:19;97997.41;;;13.90;72.59
74936;BME280;63501;55.570;37.488;2023-07-13T05:42:46;97992.94;;;14.06;72.54
74936;BME280;63501;55.570;37.488;2023-07-13T05:45:13;97999.59;;;14.30;72.16
74936;BME280;63501;55.570;37.488;2023-07-13T05:47:40;97997.63;;;14.52;71.27
74936;BME280;63501;55.570;37.488;2023-07-13T05:50:08;98006.84;;;14.62;70.71
74936;BME280;63501;55.570;37.488;2023-07-13T05:52:35;98007.97;;;14.74;70.58
74936;BME280;63501;55.570;37.488;2023-07-13T05:55:05;98005.91;;;14.87;70.29
74936;BME280;63501;55.570;37.488;2023-07-13T05:57:32;98010.03;;;15.04;70.20
74936;BME280;63501;55.570;37.488;2023-07-13T05:59:59;98008.16;;;15.01;68.97
74936;BME280;63501;55.570;37.488;2023-07-13T06:02:28;98010.94;;;15.01;69.49
74936;BME280;63501;55.570;37.488;2023-07-13T06:04:55;98001.75;;;15.23;68.62
74936;BME280;63501;55.570;37.488;2023-07-13T06:07:22;97999.97;;;15.47;68.09
74936;BME280;63501;55.570;37.488;2023-07-13T06:09:49;97990.47;;;15.67;67.25
74936;BME280;63501;55.570;37.488;2023-07-13T06:12:18;97984.00;;;15.79;66.04
74936;BME280;63501;55.570;37.488;2023-07-13T06:14:45;97985.22;;;15.69;65.30
74936;BME280;63501;55.570;37.488;2023-07-13T06:17:12;97982.88;;;15.67;64.65
74936;BME280;63501;55.570;37.488;2023-07-13T06:19:40;97983.59;;;15.58;64.56
74936;BME280;63501;55.570;37.488;2023-07-13T06:22:07;97988.47;;;15.67;63.92
74936;BME280;63501;55.570;37.488;2023-07-13T06:24:34;97978.44;;;16.06;63.66
74936;BME280;63501;55.570;37.488;2023-07-13T06:27:01;97983.53;;;16.26;62.23
74936;BME280;63501;55.570;37.488;2023-07-13T06:29:30;97985.41;;;16.20;61.07
74936;BME280;63501;55.570;37.488;2023-07-13T06:31:57;97978.91;;;16.14;61.63
74936;BME280;63501;55.570;37.488;2023-07-13T06:34:24;97986.34;;;15.90;60.89
74936;BME280;63501;55.570;37.488;2023-07-13T06:36:51;97986.31;;;15.99;61.18
74936;BME280;63501;55.570;37.488;2023-07-13T06:39:19;97980.00;;;16.35;61.08
74936;BME280;63501;55.570;37.488;2023-07-13T06:41:46;97976.09;;;16.42;60.16
74936;BME280;63501;55.570;37.488;2023-07-13T06:44:13;97975.97;;;16.45;60.10
74936;BME280;63501;55.570;37.488;2023-07-13T06:46:41;97972.69;;;16.47;59.94
74936;BME280;63501;55.570;37.488;2023-07-13T06:49:09;97974.06;;;16.60;59.73
74936;BME280;63501;55.570;37.488;2023-07-13T06:51:36;97979.34;;;16.67;59.70
74936;BME280;63501;55.570;37.488;2023-07-13T06:54:03;97973.59;;;16.71;59.29
74936;BME280;63501;55.570;37.488;2023-07-13T06:56:31;97981.06;;;16.74;59.42
74936;BME280;63501;55.570;37.488;2023-07-13T06:58:58;97984.13;;;16.85;59.35
74936;BME280;63501;55.570;37.488;2023-07-13T07:01:25;97972.75;;;17.07;58.81
74936;BME280;63501;55.570;37.488;2023-07-13T07:03:53;97968.22;;;17.43;58.53
74936;BME280;63501;55.570;37.488;2023-07-13T07:06:21;97968.94;;;17.86;57.32
74936;BME280;63501;55.570;37.488;2023-07-13T07:08:50;97973.81;;;17.67;57.11
74936;BME280;63501;55.570;37.488;2023-07-13T07:11:20;97977.44;;;17.34;57.38
74936;BME280;63501;55.570;37.488;2023-07-13T07:13:49;97976.91;;;17.12;57.22
74936;BME280;63501;55.570;37.488;2023-07-13T07:16:16;97980.38;;;16.88;58.34
74936;BME280;63501;55.570;37.488;2023-07-13T07:18:44;97979.44;;;16.91;58.53
74936;BME280;63501;55.570;37.488;2023-07-13T07:21:13;97980.22;;;17.01;57.94
74936;BME280;63501;55.570;37.488;2023-07-13T07:23:40;97985.06;;;16.82;58.77
74936;BME280;63501;55.570;37.488;2023-07-13T07:26:07;97983.50;;;16.90;59.11
74936;BME280;63501;55.570;37.488;2023-07-13T07:28:36;97984.63;;;17.17;58.91
74936;BME280;63501;55.570;37.488;2023-07-13T07:31:03;97989.13;;;17.24;58.78
74936;BME280;63501;55.570;37.488;2023-07-13T07:33:30;97985.69;;;17.29;58.88
74936;BME280;63501;55.570;37.488;2023-07-13T07:35:57;97987.56;;;17.23;58.45
74936;BME280;63501;55.570;37.488;2023-07-13T07:38:26;97996.88;;;17.19;59.08
74936;BME280;63501;55.570;37.488;2023-07-13T07:40:53;98008.63;;;17.33;58.77
74936;BME280;63501;55.570;37.488;2023-07-13T07:43:20;98004.50;;;17.19;56.92
74936;BME280;63501;55.570;37.488;2023-07-13T07:45:47;98007.84;;;16.90;57.62
74936;BME280;63501;55.570;37.488;2023-07-13T07:48:14;98008.19;;;16.74;56.98
74936;BME280;63501;55.570;37.488;2023-07-13T07:50:42;98003.53;;;16.71;57.17
74936;BME280;63501;55.570;37.488;2023-07-13T07:53:10;98007.38;;;16.82;57.26
74936;BME280;63501;55.570;37.488;2023-07-13T07:55:39;98005.19;;;16.96;56.54
74936;BME280;63501;55.570;37.488;2023-07-13T07:58:07;98002.34;;;17.05;56.82
74936;BME280;63501;55.570;37.488;2023-07-13T08:00:34;98032.00;;;17.02;56.16
74936;BME280;63501;55.570;37.488;2023-07-13T08:03:01;98030.97;;;16.72;57.73
74936;BME280;63501;55.570;37.488;2023-07-13T08:05:29;98032.34;;;16.22;58.21
74936;BME280;63501;55.570;37.488;2023-07-13T08:07:56;98031.69;;;15.90;58.81
74936;BME280;63501;55.570;37.488;2023-07-13T08:10:23;98035.22;;;15.72;59.15
74936;BME280;63501;55.570;37.488;2023-07-13T08:12:51;98044.03;;;15.71;59.39
74936;BME280;63501;55.570;37.488;2023-07-13T08:15:19;98042.78;;;15.63;59.70
74936;BME280;63501;55.570;37.488;2023-07-13T08:17:48;98047.31;;;15.47;60.88
74936;BME280;63501;55.570;37.488;2023-07-13T08:20:15;98045.06;;;15.24;62.54
74936;BME280;63501;55.570;37.488;2023-07-13T08:22:43;98036.91;;;14.98;65.34
74936;BME280;63501;55.570;37.488;2023-07-13T08:25:10;98040.47;;;14.77;65.30
74936;BME280;63501;55.570;37.488;2023-07-13T08:27:37;98033.59;;;14.69;65.72
74936;BME280;63501;55.570;37.488;2023-07-13T08:30:06;98032.78;;;14.59;66.39
74936;BME280;63501;55.570;37.488;2023-07-13T08:32:35;98036.72;;;14.49;67.34
74936;BME280;63501;55.570;37.488;2023-07-13T08:35:03;98041.00;;;14.28;68.42
74936;BME280;63501;55.570;37.488;2023-07-13T08:37:31;98048.03;;;14.20;68.93
74936;BME280;63501;55.570;37.488;2023-07-13T08:39:58;98042.59;;;14.16;71.18
74936;BME280;63501;55.570;37.488;2023-07-13T08:42:36;98041.56;;;13.88;73.67
74936;BME280;63501;55.570;37.488;2023-07-13T08:45:12;98045.03;;;13.67;75.94
74936;BME280;63501;55.570;37.488;2023-07-13T08:47:47;98033.03;;;13.70;74.86
74936;BME280;63501;55.570;37.488;2023-07-13T08:50:18;98028.53;;;13.85;75.34
74936;BME280;63501;55.570;37.488;2023-07-13T08:52:47;98033.38;;;14.07;74.38
74936;BME280;63501;55.570;37.488;2023-07-13T08:55:15;98039.38;;;14.40;73.80
74936;BME280;63501;55.570;37.488;2023-07-13T08:57:46;98038.78;;;14.58;72.69
74936;BME280;63501;55.570;37.488;2023-07-13T09:00:17;98025.53;;;14.62;71.95
74936;BME280;63501;55.570;37.488;2023-07-13T09:02:48;98030.78;;;14.60;71.89
74936;BME280;63501;55.570;37.488;2023-07-13T09:05:22;98025.03;;;14.54;72.83
74936;BME280;63501;55.570;37.488;2023-07-13T09:08:10;98032.19;;;14.29;74.02
74936;BME280;63501;55.570;37.488;2023-07-13T09:10:45;98020.00;;;13.92;75.60
74936;BME280;63501;55.570;37.488;2023-07-13T09:13:32;98032.91;;;13.73;75.92
74936;BME280;63501;55.570;37.488;2023-07-13T09:16:05;98030.38;;;13.66;75.48
74936;BME280;63501;55.570;37.488;2023-07-13T09:18:37;98036.50;;;13.48;77.86
74936;BME280;63501;55.570;37.488;2023-07-13T09:21:09;98030.25;;;13.57;77.58
74936;BME280;63501;55.570;37.488;2023-07-13T09:23:38;98039.03;;;13.81;77.62
74936;BME280;63501;55.570;37.488;2023-07-13T09:26:11;98038.66;;;13.79;78.34
74936;BME280;63501;55.570;37.488;2023-07-13T09:28:42;98046.47;;;13.71;79.28
74936;BME280;63501;55.570;37.488;2023-07-13T09:31:15;98054.56;;;13.79;79.69
74936;BME280;63501;55.570;37.488;2023-07-13T09:33:43;98049.47;;;13.77;80.40
74936;BME280;63501;55.570;37.488;2023-07-13T09:36:20;98048.78;;;13.73;79.45
74936;BME280;63501;55.570;37.488;2023-07-13T09:38:53;98038.81;;;13.50;80.81
74936;BME280;63501;55.570;37.488;2023-07-13T09:41:29;98052.25;;;13.39;81.53
74936;BME280;63501;55.570;37.488;2023-07-13T09:44:01;98052.38;;;13.35;80.33
74936;BME280;63501;55.570;37.488;2023-07-13T09:46:29;98054.47;;;13.44;80.64
74936;BME280;63501;55.570;37.488;2023-07-13T09:48:57;98061.16;;;13.59;81.16
74936;BME280;63501;55.570;37.488;2023-07-13T09:51:24;98053.81;;;13.53;80.68
74936;BME280;63501;55.570;37.488;2023-07-13T09:53:51;98050.38;;;13.48;80.65
74936;BME280;63501;55.570;37.488;2023-07-13T09:56:21;98041.81;;;13.56;81.77
74936;BME280;63501;55.570;37.488;2023-07-13T09:58:49;98051.28;;;13.58;81.69
74936;BME280;63501;55.570;37.488;2023-07-13T10:01:33;98051.25;;;13.71;82.78
74936;BME280;63501;55.570;37.488;2023-07-13T10:04:00;98054.69;;;13.75;82.45
74936;BME280;63501;55.570;37.488;2023-07-13T10:06:27;98050.25;;;13.65;82.24
74936;BME280;63501;55.570;37.488;2023-07-13T10:08:56;98054.34;;;13.73;83.13
74936;BME280;63501;55.570;37.488;2023-07-13T10:11:27;98050.00;;;13.85;82.45
74936;BME280;63501;55.570;37.488;2023-07-13T10:13:57;98047.84;;;14.01;82.47
74936;BME280;63501;55.570;37.488;2023-07-13T10:16:26;98042.91;;;14.18;81.81
74936;BME280;63501;55.570;37.488;2023-07-13T10:19:02;98041.56;;;14.23;82.62
74936;BME280;63501;55.570;37.488;2023-07-13T10:21:35;98037.16;;;14.13;83.21
74936;BME280;63501;55.570;37.488;2023-07-13T10:24:19;98042.44;;;13.98;82.75
74936;BME280;63501;55.570;37.488;2023-07-13T10:26:53;98050.78;;;13.85;83.92
74936;BME280;63501;55.570;37.488;2023-07-13T10:29:24;98052.34;;;13.86;83.76
74936;BME280;63501;55.570;37.488;2023-07-13T10:31:53;98051.91;;;13.88;83.56
74936;BME280;63501;55.570;37.488;2023-07-13T10:34:22;98051.34;;;13.80;84.06
74936;BME280;63501;55.570;37.488;2023-07-13T10:36:51;98044.47;;;13.72;83.90
74936;BME280;63501;55.570;37.488;2023-07-13T10:39:21;98049.81;;;13.66;84.84
74936;BME280;63501;55.570;37.488;2023-07-13T10:41:53;98059.03;;;13.50;84.18
74936;BME280;63501;55.570;37.488;2023-07-13T10:44:24;98055.72;;;13.43;84.39
74936;BME280;63501;55.570;37.488;2023-07-13T10:46:57;98058.50;;;13.43;84.88
74936;BME280;63501;55.570;37.488;2023-07-13T10:49:29;98051.72;;;13.31;85.85
74936;BME280;63501;55.570;37.488;2023-07-13T10:51:57;98057.03;;;13.26;86.87
74936;BME280;63501;55.570;37.488;2023-07-13T10:54:27;98061.66;;;13.16;87.08
74936;BME280;63501;55.570;37.488;2023-07-13T10:57:12;98057.66;;;13.04;86.67
74936;BME280;63501;55.570;37.488;2023-07-13T10:59:42;98061.28;;;12.88;87.37
74936;BME280;63501;55.570;37.488;2023-07-13T11:02:21;98071.13;;;12.77;88.08
74936;BME280;63501;55.570;37.488;2023-07-13T11:04:52;98075.66;;;12.70;88.19
74936;BME280;63501;55.570;37.488;2023-07-13T11:07:22;98074.97;;;12.66;89.31
74936;BME280;63501;55.570;37.488;2023-07-13T11:09:51;98074.41;;;12.59;89.37
74936;BME280;63501;55.570;37.488;2023-07-13T11:15:12;98069.41;;;12.66;89.29
74936;BME280;63501;55.570;37.488;2023-07-13T11:17:48;98076.09;;;12.69;90.44
74936;BME280;63501;55.570;37.488;2023-07-13T11:20:38;98069.88;;;12.65;90.41
74936;BME280;63501;55.570;37.488;2023-07-13T11:25:39;98063.03;;;12.40;89.94
74936;BME280;63501;55.570;37.488;2023-07-13T11:28:17;98054.88;;;12.33;89.37
74936;BME280;63501;55.570;37.488;2023-07-13T11:30:47;98051.25;;;12.36;91.18
74936;BME280;63501;55.570;37.488;2023-07-13T11:33:18;98065.28;;;12.29;89.91
74936;BME280;63501;55.570;37.488;2023-07-13T11:35:53;98061.22;;;12.17;89.45
74936;BME280;63501;55.570;37.488;2023-07-13T11:38:31;98052.13;;;12.17;90.73
74936;BME280;63501;55.570;37.488;2023-07-13T11:41:03;98053.41;;;12.29;90.96
74936;BME280;63501;55.570;37.488;2023-07-13T11:43:30;98052.59;;;12.44;91.54
74936;BME280;63501;55.570;37.488;2023-07-13T11:46:12;98047.00;;;12.61;92.37
74936;BME280;63501;55.570;37.488;2023-07-13T11:48:39;98043.34;;;12.64;91.61
74936;BME280;63501;55.570;37.488;2023-07-13T11:51:17;98037.22;;;12.56;91.28
74936;BME280;63501;55.570;37.488;2023-07-13T11:53:48;98045.97;;;12.55;91.83
74936;BME280;63501;55.570;37.488;2023-07-13T11:56:16;98053.06;;;12.56;91.66
74936;BME280;63501;55.570;37.488;2023-07-13T11:58:43;98054.38;;;12.51;91.75
74936;BME280;63501;55.570;37.488;2023-07-13T12:01:18;98054.50;;;12.48;92.75
74936;BME280;63501;55.570;37.488;2023-07-13T12:03:48;98050.25;;;12.43;92.39
74936;BME280;63501;55.570;37.488;2023-07-13T12:06:27;98051.78;;;12.31;92.58
74936;BME280;63501;55.570;37.488;2023-07-13T12:08:58;98047.13;;;12.12;92.34
74936;BME280;63501;55.570;37.488;2023-07-13T12:11:27;98045.06;;;12.00;91.86
74936;BME280;63501;55.570;37.488;2023-07-13T12:13:54;98040.56;;;11.89;92.55
74936;BME280;63501;55.570;37.488;2023-07-13T12:16:26;98037.63;;;11.80;92.47
74936;BME280;63501;55.570;37.488;2023-07-13T12:18:55;98048.00;;;11.76;91.67
74936;BME280;63501;55.570;37.488;2023-07-13T12:21:30;98048.53;;;11.71;91.78
74936;BME280;63501;55.570;37.488;2023-07-13T12:23:58;98044.91;;;11.74;93.28
74936;BME280;63501;55.570;37.488;2023-07-13T12:26:28;98042.75;;;11.82;93.57
74936;BME280;63501;55.570;37.488;2023-07-13T12:28:58;98044.66;;;11.85;92.88
74936;BME280;63501;55.570;37.488;2023-07-13T12:31:33;98040.25;;;11.87;94.02
74936;BME280;63501;55.570;37.488;2023-07-13T12:34:02;98045.25;;;11.93;93.35
74936;BME280;63501;55.570;37.488;2023-07-13T12:36:34;98036.16;;;11.92;94.36
74936;BME280;63501;55.570;37.488;2023-07-13T12:39:10;98038.34;;;11.84;94.13
74936;BME280;63501;55.570;37.488;2023-07-13T12:41:39;98033.06;;;11.90;93.95
74936;BME280;63501;55.570;37.488;2023-07-13T12:44:10;98031.13;;;12.03;94.60
74936;BME280;63501;55.570;37.488;2023-07-13T12:46:38;98029.66;;;11.99;94.65
74936;BME280;63501;55.570;37.488;2023-07-13T12:49:07;98022.56;;;11.98;94.38
74936;BME280;63501;55.570;37.488;2023-07-13T12:51:36;98019.81;;;11.98;93.87
74936;BME280;63501;55.570;37.488;2023-07-13T12:54:14;98016.50;;;12.03;94.96
74936;BME280;63501;55.570;37.488;2023-07-13T12:56:42;98022.03;;;12.03;95.07
74936;BME280;63501;55.570;37.488;2023-07-13T12:59:16;98010.59;;;12.01;95.49
74936;BME280;63501;55.570;37.488;2023-07-13T13:01:46;98024.31;;;11.91;94.49
74936;BME280;63501;55.570;37.488;2023-07-13T13:04:15;98015.47;;;11.80;94.53
74936;BME280;63501;55.570;37.488;2023-07-13T13:06:49;98015.66;;;11.73;94.94